createdAt,value
2023-04-23T00:00:13.353Z,7.67
2023-04-23T00:02:44.480Z,7.73
2023-04-23T00:05:14.717Z,8.53
2023-04-23T00:07:43.575Z,7.80
2023-04-23T00:10:12.455Z,7.53
2023-04-23T00:12:43.495Z,8.47
2023-04-23T00:15:13.860Z,7.07
2023-04-23T00:17:41.803Z,8.23
2023-04-23T00:20:10.441Z,7.07
2023-04-23T00:22:38.360Z,7.83
2023-04-23T00:25:06.780Z,7.30
2023-04-23T00:27:34.747Z,6.87
2023-04-23T00:30:04.235Z,7.57
2023-04-23T00:32:33.007Z,8.27
2023-04-23T00:35:01.748Z,7.50
2023-04-23T00:37:29.720Z,8.70
2023-04-23T00:39:57.596Z,7.40
2023-04-23T00:42:26.823Z,8.00
2023-04-23T00:44:54.763Z,8.13
2023-04-23T00:47:24.707Z,10.40
2023-04-23T00:49:55.495Z,9.63
2023-04-23T00:52:23.425Z,7.87
2023-04-23T00:54:52.181Z,7.97
2023-04-23T00:57:20.564Z,7.73
2023-04-23T00:59:48.379Z,8.40
2023-04-23T01:02:17.576Z,8.27
2023-04-23T01:04:47.060Z,9.30
2023-04-23T01:07:15.790Z,9.33
2023-04-23T01:09:45.345Z,9.13
2023-04-23T01:12:14.608Z,9.00
2023-04-23T01:14:43.579Z,8.50
2023-04-23T01:17:13.617Z,8.33
2023-04-23T01:19:42.080Z,8.70
2023-04-23T01:22:12.541Z,8.77
2023-04-23T01:24:41.226Z,8.47
2023-04-23T01:27:09.577Z,10.27
2023-04-23T01:29:39.977Z,9.47
2023-04-23T01:32:08.941Z,9.57
2023-04-23T01:34:40.256Z,8.43
2023-04-23T01:37:08.716Z,8.90
2023-04-23T01:39:38.015Z,9.70
2023-04-23T01:42:08.349Z,10.30
2023-04-23T01:44:36.338Z,9.47
2023-04-23T01:47:06.808Z,10.33
2023-04-23T01:49:35.899Z,11.27
2023-04-23T01:52:03.853Z,11.90
2023-04-23T01:54:31.784Z,12.17
2023-04-23T01:57:01.434Z,10.53
2023-04-23T01:59:29.393Z,12.60
2023-04-23T02:01:57.444Z,12.40
2023-04-23T02:04:25.645Z,13.27
2023-04-23T02:06:53.651Z,13.50
2023-04-23T02:09:22.273Z,15.30
2023-04-23T02:11:51.058Z,15.67
2023-04-23T02:14:20.330Z,15.57
2023-04-23T02:16:48.497Z,16.13
2023-04-23T02:19:16.911Z,17.30
2023-04-23T02:21:45.121Z,19.10
2023-04-23T02:24:13.007Z,17.73
2023-04-23T02:26:40.949Z,20.97
2023-04-23T02:29:08.885Z,20.07
2023-04-23T02:31:38.121Z,19.87
2023-04-23T02:34:06.276Z,18.43
2023-04-23T02:36:34.095Z,19.13
2023-04-23T02:39:02.110Z,20.07
2023-04-23T02:41:29.978Z,18.73
2023-04-23T02:43:57.886Z,19.20
2023-04-23T02:46:26.424Z,18.37
2023-04-23T02:48:55.880Z,22.23
2023-04-23T02:51:23.950Z,22.63
2023-04-23T02:53:51.956Z,27.63
2023-04-23T02:56:19.813Z,33.73
2023-04-23T02:58:48.460Z,31.07
2023-04-23T03:01:16.679Z,34.03
2023-04-23T03:03:45.064Z,37.23
2023-04-23T03:06:14.482Z,34.03
2023-04-23T03:08:42.370Z,30.93
2023-04-23T03:11:10.162Z,31.93
2023-04-23T03:13:38.091Z,29.37
2023-04-23T03:16:06.284Z,30.97
2023-04-23T03:18:34.196Z,30.40
2023-04-23T03:21:02.623Z,30.13
2023-04-23T03:23:32.224Z,29.60
2023-04-23T03:26:01.784Z,30.07
2023-04-23T03:28:31.267Z,30.53
2023-04-23T03:30:59.156Z,32.13
2023-04-23T03:33:27.132Z,32.27
2023-04-23T03:35:55.247Z,34.70
2023-04-23T03:38:28.614Z,36.97
2023-04-23T03:40:59.680Z,37.73
2023-04-23T03:43:28.484Z,42.23
2023-04-23T03:46:16.578Z,39.70
2023-04-23T03:48:44.591Z,42.37
2023-04-23T03:51:23.277Z,42.53
2023-04-23T03:53:51.841Z,43.07
2023-04-23T03:56:38.826Z,43.43
2023-04-23T03:59:17.075Z,42.70
2023-04-23T04:01:48.470Z,42.13
2023-04-23T04:04:16.688Z,41.27
2023-04-23T04:06:45.223Z,40.40
2023-04-23T04:09:13.101Z,37.53
2023-04-23T04:11:42.304Z,37.23
2023-04-23T04:14:10.934Z,34.73
2023-04-23T04:16:38.752Z,32.93
2023-04-23T04:19:06.714Z,32.73
2023-04-23T04:21:34.697Z,32.87
2023-04-23T04:24:04.651Z,35.17
2023-04-23T04:26:32.963Z,33.27
2023-04-23T04:29:02.671Z,32.63
2023-04-23T04:31:31.026Z,32.53
2023-04-23T04:33:59.104Z,30.40
2023-04-23T04:36:28.618Z,30.90
2023-04-23T04:38:58.497Z,30.63
2023-04-23T04:41:27.591Z,30.37
2023-04-23T04:43:55.639Z,31.43
2023-04-23T04:46:26.142Z,32.97
2023-04-23T04:48:54.161Z,30.40
2023-04-23T04:51:22.692Z,31.33
2023-04-23T04:53:50.652Z,31.57
2023-04-23T04:56:18.577Z,30.03
2023-04-23T04:58:46.437Z,31.57
2023-04-23T05:01:14.413Z,28.03
2023-04-23T05:03:43.999Z,31.93
2023-04-23T05:06:11.997Z,31.23
2023-04-23T05:08:39.808Z,33.90
2023-04-23T05:11:07.686Z,26.77
2023-04-23T05:13:35.802Z,27.97
2023-04-23T05:16:03.704Z,28.33
2023-04-23T05:18:31.489Z,27.57
2023-04-23T05:21:01.256Z,24.80
2023-04-23T05:23:29.171Z,23.70
2023-04-23T05:25:58.281Z,24.13
2023-04-23T05:28:26.614Z,22.40
2023-04-23T05:30:54.605Z,23.80
2023-04-23T05:33:22.554Z,21.43
2023-04-23T05:35:50.366Z,20.00
2023-04-23T05:38:19.671Z,19.33
2023-04-23T05:40:47.626Z,15.87
2023-04-23T05:43:16.247Z,15.90
2023-04-23T05:45:44.207Z,14.87
2023-04-23T05:48:12.057Z,15.57
2023-04-23T05:50:40.043Z,13.80
2023-04-23T05:53:07.996Z,12.30
2023-04-23T05:55:37.110Z,11.20
2023-04-23T05:58:05.081Z,13.57
2023-04-23T06:00:35.276Z,10.30
2023-04-23T06:03:03.547Z,10.23
2023-04-23T06:05:31.519Z,10.77
2023-04-23T06:07:59.468Z,8.77
2023-04-23T06:10:27.244Z,9.60
2023-04-23T06:12:56.638Z,9.63
2023-04-23T06:15:27.029Z,10.00
2023-04-23T06:17:55.063Z,7.50
2023-04-23T06:20:23.549Z,8.13
2023-04-23T06:22:51.406Z,7.57
2023-04-23T06:25:19.240Z,9.53
2023-04-23T06:27:47.352Z,9.13
2023-04-23T06:30:22.217Z,9.30
2023-04-23T06:32:51.204Z,9.63
2023-04-23T06:35:19.089Z,9.57
2023-04-23T06:37:47.860Z,10.87
2023-04-23T06:40:15.902Z,11.20
2023-04-23T06:42:45.302Z,10.47
2023-04-23T06:45:22.693Z,11.57
2023-04-23T06:47:50.927Z,10.90
2023-04-23T06:50:18.899Z,10.23
2023-04-23T06:52:46.979Z,10.57
2023-04-23T06:55:14.801Z,11.97
2023-04-23T06:57:42.672Z,17.03
2023-04-23T07:00:12.153Z,9.70
2023-04-23T07:02:44.134Z,12.33
2023-04-23T07:05:12.126Z,12.00
2023-04-23T07:07:40.608Z,10.73
2023-04-23T07:10:09.949Z,11.13
2023-04-23T07:12:38.271Z,10.03
2023-04-23T07:15:07.545Z,8.40
2023-04-23T07:17:35.962Z,8.87
2023-04-23T07:20:06.508Z,9.30
2023-04-23T07:22:34.597Z,8.63
2023-04-23T07:25:04.236Z,8.27
2023-04-23T07:27:32.137Z,7.80
2023-04-23T07:29:59.919Z,9.80
2023-04-23T07:32:28.168Z,8.03
2023-04-23T07:34:57.196Z,9.63
2023-04-23T07:37:26.836Z,8.43
2023-04-23T07:39:54.790Z,8.73
2023-04-23T07:42:22.820Z,8.67
2023-04-23T07:44:50.849Z,8.20
2023-04-23T07:47:18.630Z,8.33
2023-04-23T07:49:46.535Z,8.93
2023-04-23T07:52:15.487Z,8.53
2023-04-23T07:54:46.248Z,10.57
2023-04-23T07:57:14.046Z,7.27
2023-04-23T07:59:42.294Z,7.80
2023-04-23T08:02:10.664Z,8.60
2023-04-23T08:04:38.656Z,8.23
2023-04-23T08:07:06.710Z,7.50
2023-04-23T08:09:34.510Z,9.80
2023-04-23T08:12:03.773Z,9.03
2023-04-23T08:14:31.678Z,7.70
2023-04-23T08:17:02.080Z,7.20
2023-04-23T08:19:33.459Z,9.10
2023-04-23T08:22:01.493Z,7.07
2023-04-23T08:24:29.271Z,7.37
2023-04-23T08:26:57.460Z,7.33
2023-04-23T08:29:26.611Z,7.17
2023-04-23T08:31:54.503Z,6.37
2023-04-23T08:34:22.321Z,6.93
2023-04-23T08:36:50.246Z,6.23
2023-04-23T08:39:18.062Z,8.07
2023-04-23T08:41:50.407Z,7.03
2023-04-23T08:44:20.257Z,6.47
2023-04-23T08:46:50.215Z,7.10
2023-04-23T08:49:19.181Z,6.27
2023-04-23T08:51:50.858Z,7.33
2023-04-23T08:54:26.046Z,7.00
2023-04-23T08:56:57.291Z,7.23
2023-04-23T08:59:26.038Z,7.53
2023-04-23T09:01:56.044Z,5.80
2023-04-23T09:04:25.519Z,8.77
2023-04-23T09:06:54.186Z,10.03
2023-04-23T09:09:23.896Z,6.73
2023-04-23T09:11:54.652Z,6.17
2023-04-23T09:14:25.836Z,7.50
2023-04-23T09:16:55.746Z,6.17
2023-04-23T09:19:27.508Z,6.33
2023-04-23T09:21:56.002Z,7.07
2023-04-23T09:24:24.086Z,5.93
2023-04-23T09:26:53.053Z,7.60
2023-04-23T09:29:23.341Z,9.40
2023-04-23T09:31:53.221Z,9.07
2023-04-23T09:34:24.092Z,8.33
2023-04-23T09:36:54.004Z,7.73
2023-04-23T09:39:23.977Z,8.13
2023-04-23T09:41:53.067Z,8.27
2023-04-23T09:44:23.331Z,6.97
2023-04-23T09:46:51.746Z,8.13
2023-04-23T09:49:19.877Z,7.23
2023-04-23T09:51:50.219Z,7.33
2023-04-23T09:54:19.811Z,7.70
2023-04-23T09:56:51.473Z,7.77
2023-04-23T09:59:35.559Z,7.67
2023-04-23T10:02:12.349Z,7.50
2023-04-23T10:04:41.775Z,8.80
2023-04-23T10:09:44.680Z,9.60
2023-04-23T10:12:33.273Z,10.03
2023-04-23T10:15:01.831Z,7.70
2023-04-23T10:17:29.926Z,7.40
2023-04-23T10:20:01.485Z,8.87
2023-04-23T10:22:31.809Z,8.03
2023-04-23T10:25:02.445Z,8.80
2023-04-23T10:27:44.633Z,12.70
2023-04-23T10:30:21.896Z,9.13
2023-04-23T10:32:50.670Z,9.27
2023-04-23T10:35:18.943Z,8.97
2023-04-23T10:37:49.476Z,9.07
2023-04-23T10:40:21.916Z,9.83
2023-04-23T10:42:50.961Z,8.93
2023-04-23T10:45:24.888Z,8.93
2023-04-23T10:47:55.827Z,8.17
2023-04-23T10:50:26.294Z,8.00
2023-04-23T10:52:57.888Z,8.13
2023-04-23T10:55:28.505Z,9.47
2023-04-23T10:58:02.425Z,7.80
2023-04-23T11:00:45.306Z,7.37
2023-04-23T11:03:31.618Z,7.57
2023-04-23T11:06:02.730Z,8.77
2023-04-23T11:08:33.069Z,8.10
2023-04-23T11:11:02.435Z,8.50
2023-04-23T11:13:31.069Z,7.70
2023-04-23T11:16:15.655Z,6.70
2023-04-23T11:18:57.657Z,7.60
2023-04-23T11:21:58.239Z,7.20
2023-04-23T11:24:29.492Z,7.67
2023-04-23T11:26:57.908Z,8.10
2023-04-23T11:29:26.703Z,7.47
2023-04-23T11:34:29.260Z,7.60
2023-04-23T11:36:59.364Z,7.93
2023-04-23T11:39:28.644Z,6.37
2023-04-23T11:41:57.003Z,6.90
2023-04-23T11:44:24.875Z,7.97
2023-04-23T11:46:52.733Z,9.30
2023-04-23T11:49:21.601Z,6.07
2023-04-23T11:51:49.615Z,6.57
2023-04-23T11:54:20.009Z,8.53
2023-04-23T11:56:49.155Z,8.20
2023-04-23T11:59:16.976Z,7.80
2023-04-23T12:01:47.915Z,8.40
2023-04-23T12:04:17.415Z,7.93
2023-04-23T12:06:47.580Z,7.60
2023-04-23T12:09:17.156Z,8.70
2023-04-23T12:11:46.487Z,9.50
2023-04-23T12:14:17.846Z,8.93
2023-04-23T12:16:47.178Z,8.37
2023-04-23T12:19:16.504Z,9.60
2023-04-23T12:21:55.783Z,7.23
2023-04-23T12:24:24.471Z,7.73
2023-04-23T12:26:54.347Z,7.73
2023-04-23T12:29:24.117Z,8.00
2023-04-23T12:31:52.970Z,7.87
2023-04-23T12:34:21.936Z,8.93
2023-04-23T12:36:51.081Z,8.33
2023-04-23T12:39:26.842Z,8.37
2023-04-23T12:41:56.456Z,7.80
2023-04-23T12:44:26.859Z,9.90
2023-04-23T12:46:59.383Z,8.37
2023-04-23T12:49:28.029Z,8.00
2023-04-23T12:52:00.772Z,7.83
2023-04-23T12:54:31.124Z,10.13
2023-04-23T12:56:59.656Z,9.23
2023-04-23T12:59:28.822Z,8.40
2023-04-23T13:01:56.871Z,8.83
2023-04-23T13:04:24.688Z,9.40
2023-04-23T13:06:52.776Z,9.53
2023-04-23T13:09:21.748Z,7.50
2023-04-23T13:11:49.837Z,8.47
2023-04-23T13:14:18.006Z,10.17
2023-04-23T13:16:47.352Z,8.37
2023-04-23T13:19:16.866Z,8.30
2023-04-23T13:21:44.868Z,8.53
2023-04-23T13:24:12.828Z,9.00
2023-04-23T13:26:40.744Z,8.23
2023-04-23T13:29:10.183Z,8.40
2023-04-23T13:31:38.171Z,7.37
2023-04-23T13:34:07.694Z,6.93
2023-04-23T13:36:35.594Z,7.03
2023-04-23T13:39:04.704Z,7.17
2023-04-23T13:41:32.760Z,6.77
2023-04-23T13:44:01.332Z,7.30
2023-04-23T13:46:29.298Z,6.43
2023-04-23T13:48:57.339Z,6.80
2023-04-23T13:54:00.879Z,6.77
2023-04-23T13:56:30.035Z,7.03
2023-04-23T13:59:17.580Z,6.53
2023-04-23T14:01:49.718Z,5.97
2023-04-23T14:04:18.375Z,6.53
2023-04-23T14:06:47.576Z,5.93
2023-04-23T14:09:15.574Z,6.23
2023-04-23T14:11:43.433Z,5.27
2023-04-23T14:14:11.339Z,5.30
2023-04-23T14:16:39.211Z,5.00
2023-04-23T14:19:07.485Z,4.93
2023-04-23T14:21:36.236Z,4.97
2023-04-23T14:24:11.681Z,4.77
2023-04-23T14:26:48.849Z,4.97
2023-04-23T14:29:26.094Z,4.70
2023-04-23T14:31:54.058Z,4.73
2023-04-23T14:34:22.195Z,4.37
2023-04-23T14:36:50.472Z,4.87
2023-04-23T14:39:19.634Z,4.30
2023-04-23T14:41:47.473Z,4.60
2023-04-23T14:44:15.334Z,4.27
2023-04-23T14:46:43.233Z,4.20
2023-04-23T14:49:11.379Z,6.77
2023-04-23T14:51:39.532Z,4.10
2023-04-23T14:54:07.470Z,4.77
2023-04-23T14:56:37.075Z,4.50
2023-04-23T14:59:05.409Z,4.93
2023-04-23T15:01:33.345Z,4.60
2023-04-23T15:04:01.576Z,5.70
2023-04-23T15:06:29.628Z,4.20
2023-04-23T15:08:57.524Z,4.53
2023-04-23T15:11:25.547Z,4.17
2023-04-23T15:14:03.648Z,4.03
2023-04-23T15:19:06.802Z,4.53
2023-04-23T15:21:35.115Z,4.33
2023-04-23T15:24:02.967Z,3.50
2023-04-23T15:26:32.612Z,5.87
2023-04-23T15:29:02.975Z,9.17
2023-04-23T15:31:31.065Z,6.93
2023-04-23T15:33:58.976Z,4.73
2023-04-23T15:36:28.063Z,5.13
2023-04-23T15:38:55.852Z,5.27
2023-04-23T15:41:23.737Z,5.00
2023-04-23T15:43:53.627Z,5.73
2023-04-23T15:46:22.878Z,4.93
2023-04-23T15:48:50.659Z,5.10
2023-04-23T15:51:18.603Z,6.90
2023-04-23T15:53:46.406Z,3.60
2023-04-23T15:56:14.325Z,3.83
2023-04-23T15:58:42.150Z,3.60
2023-04-23T16:01:10.361Z,3.60
2023-04-23T16:03:39.982Z,4.60
2023-04-23T16:06:09.450Z,3.77
2023-04-23T16:08:38.476Z,3.97
2023-04-23T16:11:08.900Z,4.10
2023-04-23T16:13:37.080Z,4.10
2023-04-23T16:16:05.115Z,4.27
2023-04-23T16:18:33.020Z,4.03
2023-04-23T16:21:02.359Z,5.00
2023-04-23T16:23:30.468Z,3.30
2023-04-23T16:25:58.385Z,3.83
2023-04-23T16:28:26.242Z,3.40
2023-04-23T16:30:54.135Z,4.93
2023-04-23T16:33:23.711Z,4.87
2023-04-23T16:35:51.664Z,3.33
2023-04-23T16:38:20.975Z,4.13
2023-04-23T16:40:48.814Z,4.17
2023-04-23T16:43:16.609Z,3.03
2023-04-23T16:45:44.573Z,4.47
2023-04-23T16:48:16.355Z,3.47
2023-04-23T16:50:44.348Z,5.00
2023-04-23T16:53:13.310Z,6.97
2023-04-23T16:55:42.666Z,4.53
2023-04-23T16:58:10.984Z,4.73
2023-04-23T17:00:38.880Z,3.97
2023-04-23T17:03:06.992Z,4.70
2023-04-23T17:05:35.964Z,5.70
2023-04-23T17:08:03.869Z,5.57
2023-04-23T17:10:31.934Z,3.53
2023-04-23T17:13:02.003Z,3.73
2023-04-23T17:15:30.088Z,3.77
2023-04-23T17:17:57.934Z,3.73
2023-04-23T17:20:25.946Z,4.13
2023-04-23T17:22:53.764Z,3.37
2023-04-23T17:25:21.585Z,4.17
2023-04-23T17:27:49.425Z,3.20
2023-04-23T17:30:18.700Z,5.27
2023-04-23T17:32:46.615Z,4.23
2023-04-23T17:35:22.518Z,4.80
2023-04-23T17:37:50.477Z,5.67
2023-04-23T17:40:18.836Z,4.03
2023-04-23T17:42:47.014Z,10.63
2023-04-23T17:45:15.078Z,4.97
2023-04-23T17:47:43.007Z,5.07
2023-04-23T17:50:11.985Z,6.00
2023-04-23T17:52:44.057Z,5.67
2023-04-23T17:55:12.603Z,5.13
2023-04-23T17:57:40.436Z,5.27
2023-04-23T18:00:12.122Z,5.33
2023-04-23T18:02:41.382Z,4.83
2023-04-23T18:05:09.933Z,4.73
2023-04-23T18:07:37.991Z,5.23
2023-04-23T18:10:08.905Z,6.20
2023-04-23T18:12:36.980Z,5.73
2023-04-23T18:15:05.382Z,8.77
2023-04-23T18:17:33.287Z,8.30
2023-04-23T18:20:01.325Z,8.53
2023-04-23T18:22:29.225Z,8.80
2023-04-23T18:24:57.061Z,9.53
2023-04-23T18:27:26.838Z,14.53
2023-04-23T18:29:57.670Z,13.37
2023-04-23T18:32:34.345Z,10.10
2023-04-23T18:35:03.026Z,9.57
2023-04-23T18:37:42.688Z,10.93
2023-04-23T18:40:11.312Z,9.67
2023-04-23T18:42:40.565Z,8.33
2023-04-23T18:45:10.590Z,8.73
2023-04-23T18:47:44.996Z,20.70
2023-04-23T18:50:31.703Z,11.33
2023-04-23T18:52:59.643Z,8.43
2023-04-23T18:55:27.528Z,7.40
2023-04-23T18:57:57.231Z,8.07
2023-04-23T19:00:25.051Z,8.40
2023-04-23T19:02:53.194Z,7.10
2023-04-23T19:05:21.191Z,8.53
2023-04-23T19:07:49.470Z,8.70
2023-04-23T19:10:17.466Z,9.87
2023-04-23T19:12:45.384Z,7.40
2023-04-23T19:15:15.582Z,9.13
2023-04-23T19:17:43.558Z,8.10
2023-04-23T19:20:12.836Z,8.23
2023-04-23T19:22:42.189Z,8.07
2023-04-23T19:25:10.630Z,8.83
2023-04-23T19:27:38.787Z,8.13
2023-04-23T19:30:09.936Z,8.60
2023-04-23T19:32:39.195Z,8.67
2023-04-23T19:35:07.506Z,8.10
2023-04-23T19:37:36.885Z,9.60
2023-04-23T19:40:05.580Z,9.77
2023-04-23T19:42:33.453Z,9.50
2023-04-23T19:45:01.248Z,9.47
2023-04-23T19:47:29.330Z,9.40
2023-04-23T19:49:58.526Z,10.73
2023-04-23T19:52:28.071Z,9.17
2023-04-23T19:54:55.899Z,9.63
2023-04-23T19:57:23.803Z,11.23
2023-04-23T19:59:51.580Z,9.70
2023-04-23T20:02:20.348Z,10.57
2023-04-23T20:04:48.271Z,11.00
2023-04-23T20:07:17.873Z,10.63
2023-04-23T20:09:45.862Z,11.40
2023-04-23T20:12:14.328Z,10.53
2023-04-23T20:14:42.777Z,10.53
2023-04-23T20:17:11.048Z,11.83
2023-04-23T20:19:39.634Z,10.53
2023-04-23T20:22:07.756Z,10.50
2023-04-23T20:24:40.188Z,10.27
2023-04-23T20:27:08.169Z,10.00
2023-04-23T20:29:36.052Z,11.93
2023-04-23T20:32:03.992Z,10.60
2023-04-23T20:34:31.852Z,11.93
2023-04-23T20:37:00.121Z,10.90
2023-04-23T20:39:27.988Z,11.23
2023-04-23T20:41:57.818Z,10.73
2023-04-23T20:44:25.857Z,11.17
2023-04-23T20:46:53.956Z,10.67
2023-04-23T20:49:22.235Z,9.97
2023-04-23T20:51:51.137Z,11.40
2023-04-23T20:54:19.054Z,10.43
2023-04-23T20:56:46.878Z,9.50
2023-04-23T20:59:16.201Z,8.70
2023-04-23T21:01:44.223Z,11.60
2023-04-23T21:04:12.277Z,9.47
2023-04-23T21:06:40.654Z,8.03
2023-04-23T21:09:08.520Z,10.20
2023-04-23T21:11:36.421Z,9.67
2023-04-23T21:14:08.423Z,8.60
2023-04-23T21:16:38.769Z,10.20
2023-04-23T21:19:07.069Z,9.87
2023-04-23T21:21:35.062Z,8.90
2023-04-23T21:24:03.043Z,9.67
2023-04-23T21:26:32.536Z,8.67
2023-04-23T21:29:00.418Z,9.13
2023-04-23T21:31:37.028Z,9.73
2023-04-23T21:34:06.486Z,8.63
2023-04-23T21:36:34.382Z,8.40
2023-04-23T21:39:02.665Z,9.43
2023-04-23T21:41:30.800Z,9.73
2023-04-23T21:43:58.671Z,9.13
2023-04-23T21:46:27.113Z,9.60
2023-04-23T21:48:55.042Z,9.30
2023-04-23T21:51:24.992Z,10.33
2023-04-23T21:53:52.981Z,9.87
2023-04-23T21:56:21.224Z,9.70
2023-04-23T21:58:49.125Z,10.43
2023-04-23T22:01:18.001Z,8.13
2023-04-23T22:03:47.973Z,9.37
2023-04-23T22:06:17.377Z,7.80
2023-04-23T22:08:47.327Z,8.07
2023-04-23T22:11:17.216Z,7.47
2023-04-23T22:13:45.153Z,7.23
2023-04-23T22:16:26.792Z,8.60
2023-04-23T22:18:56.278Z,6.73
2023-04-23T22:21:24.147Z,7.40
2023-04-23T22:23:53.450Z,6.97
2023-04-23T22:26:21.559Z,7.47
2023-04-23T22:28:49.479Z,7.37
2023-04-23T22:31:18.318Z,6.33
2023-04-23T22:33:47.060Z,6.53
2023-04-23T22:36:15.077Z,7.57
2023-04-23T22:38:43.097Z,6.73
2023-04-23T22:41:12.246Z,6.63
2023-04-23T22:43:40.116Z,5.43
2023-04-23T22:46:07.978Z,6.90
2023-04-23T22:48:37.631Z,5.87
2023-04-23T22:51:06.883Z,5.33
2023-04-23T22:53:34.678Z,5.93
2023-04-23T22:56:02.868Z,5.87
2023-04-23T22:58:32.051Z,6.80
2023-04-23T23:00:59.882Z,5.70
2023-04-23T23:03:27.835Z,5.73
2023-04-23T23:05:55.829Z,4.83
2023-04-23T23:08:23.636Z,5.30
2023-04-23T23:10:51.479Z,5.30
2023-04-23T23:13:19.305Z,5.10
2023-04-23T23:15:48.625Z,5.00
2023-04-23T23:18:16.513Z,5.27
2023-04-23T23:20:45.147Z,5.13
2023-04-23T23:23:13.168Z,5.90
2023-04-23T23:25:40.987Z,4.70
2023-04-23T23:28:09.071Z,4.47
2023-04-23T23:30:36.865Z,5.30
2023-04-23T23:33:06.689Z,4.83
2023-04-23T23:35:34.682Z,5.50
2023-04-23T23:38:02.517Z,4.73
2023-04-23T23:40:31.467Z,7.10
2023-04-23T23:42:59.273Z,5.83
2023-04-23T23:45:27.371Z,6.70
2023-04-23T23:47:56.013Z,6.53
2023-04-23T23:50:25.981Z,6.30
2023-04-23T23:52:53.966Z,6.57
2023-04-23T23:55:21.921Z,5.93
2023-04-23T23:57:49.872Z,5.43
